createdAt,value
2018-06-13T00:01:29.741Z,8.73
2018-06-13T00:03:59.286Z,11.23
2018-06-13T00:06:28.476Z,8.17
2018-06-13T00:08:59.018Z,12.30
2018-06-13T00:11:27.603Z,10.93
2018-06-13T00:13:58.958Z,10.23
2018-06-13T00:16:31.431Z,10.23
2018-06-13T00:19:01.183Z,9.50
2018-06-13T00:21:31.872Z,8.33
2018-06-13T00:24:01.935Z,9.73
2018-06-13T00:26:35.999Z,10.03
2018-06-13T00:29:06.533Z,8.37
2018-06-13T00:31:36.816Z,7.47
2018-06-13T00:34:06.876Z,10.33
2018-06-13T00:36:35.985Z,10.77
2018-06-13T00:39:09.752Z,11.37
2018-06-13T00:41:38.391Z,7.97
2018-06-13T00:44:11.310Z,7.10
2018-06-13T00:46:39.935Z,9.33
2018-06-13T00:49:10.218Z,9.27
2018-06-13T00:51:39.985Z,7.87
2018-06-13T00:54:11.071Z,6.80
2018-06-13T00:56:41.235Z,7.43
2018-06-13T00:59:11.327Z,10.07
2018-06-13T01:01:41.090Z,9.67
2018-06-13T01:04:14.119Z,13.97
2018-06-13T01:06:43.012Z,8.83
2018-06-13T01:09:13.095Z,8.67
2018-06-13T01:11:44.101Z,5.63
2018-06-13T01:14:14.188Z,10.13
2018-06-13T01:16:44.927Z,8.93
2018-06-13T01:19:14.103Z,6.83
2018-06-13T01:21:44.484Z,9.30
2018-06-13T01:24:13.905Z,6.73
2018-06-13T01:26:47.797Z,7.87
2018-06-13T01:29:16.554Z,7.07
2018-06-13T01:31:50.351Z,8.07
2018-06-13T01:34:20.140Z,8.77
2018-06-13T01:36:53.006Z,8.70
2018-06-13T01:39:24.373Z,6.97
2018-06-13T01:41:54.050Z,14.00
2018-06-13T01:44:24.743Z,7.33
2018-06-13T01:46:56.611Z,7.27
2018-06-13T01:49:27.084Z,8.47
2018-06-13T01:51:58.601Z,9.80
2018-06-13T01:54:27.691Z,8.67
2018-06-13T01:56:56.283Z,6.83
2018-06-13T01:59:24.832Z,9.97
2018-06-13T02:01:53.555Z,11.83
2018-06-13T02:04:22.435Z,8.37
2018-06-13T02:06:51.352Z,8.23
2018-06-13T02:09:20.022Z,11.00
2018-06-13T02:11:48.638Z,8.17
2018-06-13T02:14:17.260Z,7.77
2018-06-13T02:16:45.865Z,8.07
2018-06-13T02:19:14.399Z,8.57
2018-06-13T02:21:43.007Z,6.57
2018-06-13T02:24:11.619Z,7.47
2018-06-13T02:26:40.152Z,9.93
2018-06-13T02:29:08.778Z,7.20
2018-06-13T02:31:37.321Z,9.97
2018-06-13T02:34:05.864Z,11.43
2018-06-13T02:36:34.944Z,8.27
2018-06-13T02:39:03.850Z,7.20
2018-06-13T02:41:32.419Z,7.73
2018-06-13T02:44:01.007Z,9.93
2018-06-13T02:46:29.640Z,10.57
2018-06-13T02:48:58.185Z,8.67
2018-06-13T02:51:26.747Z,11.87
2018-06-13T02:53:55.419Z,8.87
2018-06-13T02:56:23.975Z,10.17
2018-06-13T02:58:52.931Z,12.20
2018-06-13T03:01:21.511Z,12.13
2018-06-13T03:03:50.350Z,14.30
2018-06-13T03:06:18.859Z,8.83
2018-06-13T03:08:47.408Z,12.13
2018-06-13T03:11:15.928Z,9.77
2018-06-13T03:13:44.451Z,10.47
2018-06-13T03:16:13.004Z,12.53
2018-06-13T03:18:41.564Z,10.87
2018-06-13T03:21:10.120Z,9.20
2018-06-13T03:23:38.696Z,14.43
2018-06-13T03:26:07.477Z,14.57
2018-06-13T03:28:35.988Z,11.03
2018-06-13T03:31:04.651Z,10.20
2018-06-13T03:33:33.516Z,7.30
2018-06-13T03:36:02.094Z,8.53
2018-06-13T03:38:31.679Z,10.57
2018-06-13T03:41:00.232Z,8.20
2018-06-13T03:43:28.758Z,10.97
2018-06-13T03:45:57.277Z,11.77
2018-06-13T03:48:25.878Z,7.63
2018-06-13T03:50:54.504Z,11.97
2018-06-13T03:53:23.083Z,10.80
2018-06-13T03:55:51.590Z,9.90
2018-06-13T03:58:20.128Z,8.97
2018-06-13T04:00:48.656Z,9.10
2018-06-13T04:03:17.191Z,9.50
2018-06-13T04:05:45.936Z,8.10
2018-06-13T04:08:14.433Z,8.83
2018-06-13T04:10:42.995Z,12.30
2018-06-13T04:13:11.492Z,8.37
2018-06-13T04:15:40.053Z,8.67
2018-06-13T04:18:08.718Z,12.37
2018-06-13T04:20:37.254Z,8.63
2018-06-13T04:23:05.847Z,7.50
2018-06-13T04:25:34.497Z,10.13
2018-06-13T04:28:03.087Z,9.53
2018-06-13T04:30:31.648Z,11.60
2018-06-13T04:33:00.269Z,7.37
2018-06-13T04:35:28.772Z,7.70
2018-06-13T04:37:57.355Z,12.87
2018-06-13T04:40:25.886Z,12.37
2018-06-13T04:42:54.412Z,7.73
2018-06-13T04:45:22.956Z,10.50
2018-06-13T04:47:51.499Z,7.73
2018-06-13T04:50:19.986Z,13.00
2018-06-13T04:52:48.202Z,7.40
2018-06-13T04:55:16.775Z,8.17
2018-06-13T04:57:45.304Z,9.93
2018-06-13T05:00:13.856Z,8.60
2018-06-13T05:02:42.531Z,11.67
2018-06-13T05:05:11.075Z,10.70
2018-06-13T05:07:39.685Z,10.13
2018-06-13T05:10:08.251Z,11.77
2018-06-13T05:12:36.917Z,9.33
2018-06-13T05:15:05.549Z,7.60
2018-06-13T05:17:34.123Z,9.40
2018-06-13T05:20:02.633Z,9.37
2018-06-13T05:22:31.285Z,9.00
2018-06-13T05:25:00.000Z,7.83
2018-06-13T05:27:28.622Z,11.67
2018-06-13T05:29:57.221Z,9.23
2018-06-13T05:32:25.763Z,7.93
2018-06-13T05:34:54.370Z,8.60
2018-06-13T05:37:22.976Z,9.53
2018-06-13T05:39:51.473Z,8.57
2018-06-13T05:42:20.032Z,7.97
2018-06-13T05:44:48.560Z,11.83
2018-06-13T05:47:17.103Z,13.83
2018-06-13T05:49:45.979Z,6.70
2018-06-13T05:52:14.627Z,12.07
2018-06-13T05:54:43.471Z,13.13
2018-06-13T05:57:12.105Z,31.70
2018-06-13T05:59:40.635Z,17.27
2018-06-13T06:02:09.258Z,12.50
2018-06-13T06:04:37.793Z,8.87
2018-06-13T06:07:06.599Z,8.63
2018-06-13T06:09:35.231Z,7.57
2018-06-13T06:12:03.760Z,9.27
2018-06-13T06:14:32.311Z,8.97
2018-06-13T06:17:00.975Z,9.27
2018-06-13T06:19:29.809Z,8.17
2018-06-13T06:21:58.518Z,10.67
2018-06-13T06:24:27.108Z,9.03
2018-06-13T06:26:55.787Z,6.30
2018-06-13T06:29:24.612Z,10.93
2018-06-13T06:31:53.361Z,9.17
2018-06-13T06:34:22.028Z,11.70
2018-06-13T06:36:50.774Z,7.03
2018-06-13T06:39:19.306Z,7.37
2018-06-13T06:41:48.048Z,8.63
2018-06-13T06:44:16.927Z,10.23
2018-06-13T06:46:45.611Z,8.87
2018-06-13T06:49:14.205Z,8.87
2018-06-13T06:51:42.937Z,7.13
2018-06-13T06:54:11.690Z,6.23
2018-06-13T06:56:40.432Z,8.03
2018-06-13T07:01:51.847Z,5.73
2018-06-13T07:04:20.586Z,10.07
2018-06-13T07:06:49.343Z,7.73
2018-06-13T07:09:18.063Z,5.60
2018-06-13T07:11:47.056Z,8.90
2018-06-13T07:14:15.673Z,5.70
2018-06-13T07:16:44.412Z,5.30
2018-06-13T07:19:13.061Z,5.93
2018-06-13T07:21:41.646Z,5.10
2018-06-13T07:24:10.458Z,5.63
2018-06-13T07:26:39.558Z,5.60
2018-06-13T07:29:08.412Z,6.43
2018-06-13T07:31:36.984Z,5.20
2018-06-13T07:34:05.764Z,5.30
2018-06-13T07:36:34.451Z,8.50
2018-06-13T07:39:03.251Z,6.53
2018-06-13T07:41:32.468Z,7.13
2018-06-13T07:44:01.065Z,7.67
2018-06-13T07:46:29.755Z,5.47
2018-06-13T07:48:58.658Z,5.43
2018-06-13T07:51:27.184Z,4.73
2018-06-13T07:53:55.940Z,5.30
2018-06-13T07:56:24.629Z,5.40
2018-06-13T07:58:53.200Z,4.50
2018-06-13T08:01:21.784Z,8.17
2018-06-13T08:03:50.371Z,4.23
2018-06-13T08:06:19.176Z,6.03
2018-06-13T08:08:52.949Z,4.90
2018-06-13T08:11:21.585Z,5.47
2018-06-13T08:13:50.313Z,4.50
2018-06-13T08:16:18.854Z,4.63
2018-06-13T08:18:47.447Z,6.03
2018-06-13T08:21:15.742Z,5.00
2018-06-13T08:23:44.975Z,5.53
2018-06-13T08:26:13.564Z,4.13
2018-06-13T08:28:42.443Z,4.70
2018-06-13T08:31:11.129Z,5.07
2018-06-13T08:33:39.779Z,5.30
2018-06-13T08:36:08.739Z,7.77
2018-06-13T08:38:37.395Z,4.73
2018-06-13T08:41:06.196Z,6.97
2018-06-13T08:43:35.114Z,6.13
2018-06-13T08:46:03.687Z,5.50
2018-06-13T08:48:32.535Z,5.00
2018-06-13T08:51:01.404Z,4.37
2018-06-13T08:53:30.039Z,4.83
2018-06-13T08:55:58.593Z,4.20
2018-06-13T08:58:27.552Z,5.57
2018-06-13T09:00:56.114Z,5.77
2018-06-13T09:03:24.790Z,9.80
2018-06-13T09:05:53.708Z,4.63
2018-06-13T09:08:22.375Z,7.10
2018-06-13T09:10:51.125Z,5.57
2018-06-13T09:13:19.794Z,7.57
2018-06-13T09:15:48.596Z,5.47
2018-06-13T09:18:17.491Z,31.03
2018-06-13T09:20:46.178Z,14.27
2018-06-13T09:23:14.960Z,7.23
2018-06-13T09:25:43.899Z,5.23
2018-06-13T09:28:12.741Z,6.67
2018-06-13T09:30:41.516Z,6.13
2018-06-13T09:33:10.224Z,12.13
2018-06-13T09:35:38.787Z,9.20
2018-06-13T09:38:07.549Z,6.70
2018-06-13T09:40:36.158Z,5.10
2018-06-13T09:43:04.866Z,7.20
2018-06-13T09:45:33.462Z,5.80
2018-06-13T09:48:02.080Z,12.43
2018-06-13T09:50:30.764Z,8.00
2018-06-13T09:52:59.407Z,4.73
2018-06-13T09:55:28.189Z,6.23
2018-06-13T09:57:56.787Z,5.07
2018-06-13T10:00:30.795Z,8.50
2018-06-13T10:02:59.437Z,6.10
2018-06-13T10:05:28.120Z,5.73
2018-06-13T10:07:56.844Z,4.53
2018-06-13T10:10:25.524Z,7.00
2018-06-13T10:12:54.588Z,4.73
2018-06-13T10:15:23.251Z,5.27
2018-06-13T10:17:51.860Z,5.33
2018-06-13T10:20:20.591Z,6.27
2018-06-13T10:22:49.324Z,5.07
2018-06-13T10:25:17.916Z,5.00
2018-06-13T10:27:46.899Z,6.07
2018-06-13T10:30:15.999Z,6.00
2018-06-13T10:32:44.739Z,5.60
2018-06-13T10:35:13.411Z,5.17
2018-06-13T10:37:41.979Z,4.80
2018-06-13T10:40:10.782Z,5.53
2018-06-13T10:42:39.440Z,4.73
2018-06-13T10:45:08.225Z,6.37
2018-06-13T10:47:36.916Z,6.30
2018-06-13T10:50:06.221Z,8.57
2018-06-13T10:52:35.627Z,5.33
2018-06-13T10:55:04.492Z,4.63
2018-06-13T10:57:33.208Z,5.80
2018-06-13T11:00:01.821Z,5.00
2018-06-13T11:02:30.534Z,6.07
2018-06-13T11:04:59.237Z,5.90
2018-06-13T11:07:27.991Z,4.93
2018-06-13T11:09:56.817Z,5.23
2018-06-13T11:12:25.505Z,8.40
2018-06-13T11:14:54.261Z,7.50
2018-06-13T11:17:22.944Z,4.87
2018-06-13T11:19:51.692Z,6.03
2018-06-13T11:22:20.278Z,5.47
2018-06-13T11:24:48.904Z,7.57
2018-06-13T11:27:17.713Z,5.80
2018-06-13T11:29:51.520Z,5.33
2018-06-13T11:32:20.230Z,5.00
2018-06-13T11:34:53.126Z,4.60
2018-06-13T11:37:21.960Z,6.27
2018-06-13T11:39:50.610Z,3.90
2018-06-13T11:42:19.167Z,6.87
2018-06-13T11:44:48.532Z,5.37
2018-06-13T11:47:17.428Z,7.13
2018-06-13T11:49:46.458Z,5.83
2018-06-13T11:52:15.085Z,6.57
2018-06-13T11:54:43.668Z,5.70
2018-06-13T11:57:12.227Z,7.00
2018-06-13T11:59:41.001Z,5.10
2018-06-13T12:02:10.259Z,3.63
2018-06-13T12:04:38.913Z,4.73
2018-06-13T12:07:07.703Z,5.23
2018-06-13T12:09:36.623Z,5.80
2018-06-13T12:12:05.631Z,3.80
2018-06-13T12:14:34.226Z,3.67
2018-06-13T12:17:03.015Z,4.67
2018-06-13T12:19:32.101Z,6.87
2018-06-13T12:22:00.740Z,3.73
2018-06-13T12:24:29.480Z,3.80
2018-06-13T12:26:58.159Z,4.03
2018-06-13T12:29:26.780Z,3.87
2018-06-13T12:31:55.694Z,3.83
2018-06-13T12:34:24.311Z,3.93
2018-06-13T12:36:53.315Z,4.23
2018-06-13T12:39:21.951Z,4.77
2018-06-13T12:41:50.698Z,4.70
2018-06-13T12:44:19.619Z,4.80
2018-06-13T12:46:48.238Z,4.30
2018-06-13T12:49:17.072Z,3.53
2018-06-13T12:51:45.872Z,4.40
2018-06-13T12:54:14.488Z,4.37
2018-06-13T12:56:43.094Z,3.70
2018-06-13T12:59:12.202Z,4.13
2018-06-13T13:01:41.402Z,3.10
2018-06-13T13:04:10.821Z,4.00
2018-06-13T13:06:39.475Z,3.97
2018-06-13T13:09:10.901Z,3.30
2018-06-13T13:11:40.161Z,4.40
2018-06-13T13:14:09.192Z,6.63
2018-06-13T13:16:38.015Z,3.73
2018-06-13T13:19:06.609Z,3.00
2018-06-13T13:21:35.572Z,2.80
2018-06-13T13:24:04.291Z,4.07
2018-06-13T13:26:33.962Z,4.73
2018-06-13T13:29:03.135Z,3.60
2018-06-13T13:31:31.904Z,4.43
2018-06-13T13:34:01.681Z,3.53
2018-06-13T13:36:31.014Z,3.87
2018-06-13T13:38:59.619Z,4.77
2018-06-13T13:41:28.699Z,3.37
2018-06-13T13:43:57.329Z,3.10
2018-06-13T13:46:26.060Z,3.30
2018-06-13T13:48:54.827Z,2.80
2018-06-13T13:51:24.127Z,3.57
2018-06-13T13:53:52.783Z,3.60
2018-06-13T13:56:21.383Z,3.70
2018-06-13T13:58:49.955Z,2.80
2018-06-13T14:01:19.057Z,4.33
2018-06-13T14:03:47.661Z,2.77
2018-06-13T14:06:16.358Z,3.57
2018-06-13T14:08:45.113Z,5.40
2018-06-13T14:11:14.033Z,3.13
2018-06-13T14:13:42.949Z,3.93
2018-06-13T14:16:11.848Z,3.93
2018-06-13T14:18:40.576Z,7.67
2018-06-13T14:21:09.242Z,2.87
2018-06-13T14:23:37.885Z,2.90
2018-06-13T14:26:07.352Z,5.97
2018-06-13T14:28:36.467Z,5.70
2018-06-13T14:31:05.239Z,4.10
2018-06-13T14:33:34.219Z,3.13
2018-06-13T14:36:02.840Z,4.77
2018-06-13T14:38:31.531Z,2.63
2018-06-13T14:41:00.484Z,3.73
2018-06-13T14:43:29.520Z,2.80
2018-06-13T14:45:58.125Z,2.93
2018-06-13T14:48:26.510Z,3.73
2018-06-13T14:50:55.693Z,4.20
2018-06-13T14:53:24.260Z,3.10
2018-06-13T14:55:58.256Z,2.53
2018-06-13T14:58:26.882Z,3.13
2018-06-13T15:00:55.502Z,2.60
2018-06-13T15:03:24.087Z,4.53
2018-06-13T15:05:52.948Z,7.50
2018-06-13T15:08:21.548Z,28.03
2018-06-13T15:10:50.199Z,31.47
2018-06-13T15:13:18.423Z,3.83
2018-06-13T15:15:47.164Z,3.97
2018-06-13T15:18:15.900Z,2.50
2018-06-13T15:20:44.551Z,5.20
2018-06-13T15:23:13.679Z,2.63
2018-06-13T15:25:42.366Z,2.23
2018-06-13T15:28:11.163Z,3.27
2018-06-13T15:30:39.940Z,4.83
2018-06-13T15:33:09.100Z,3.23
2018-06-13T15:35:37.840Z,2.33
2018-06-13T15:38:06.780Z,2.57
2018-06-13T15:40:35.516Z,3.20
2018-06-13T15:43:04.684Z,2.30
2018-06-13T15:45:33.287Z,2.37
2018-06-13T15:48:01.874Z,2.10
2018-06-13T15:50:30.588Z,2.70
2018-06-13T15:52:59.260Z,2.60
2018-06-13T15:55:27.928Z,1.90
2018-06-13T15:57:56.569Z,3.73
2018-06-13T16:00:25.562Z,6.93
2018-06-13T16:02:54.204Z,3.50
2018-06-13T16:05:22.802Z,6.07
2018-06-13T16:07:51.527Z,3.63
2018-06-13T16:10:20.403Z,3.00
2018-06-13T16:12:49.095Z,7.30
2018-06-13T16:15:20.134Z,5.47
2018-06-13T16:17:48.828Z,2.50
2018-06-13T16:20:17.610Z,2.47
2018-06-13T16:22:46.264Z,3.03
2018-06-13T16:25:14.947Z,3.20
2018-06-13T16:27:43.587Z,2.40
2018-06-13T16:30:12.219Z,3.50
2018-06-13T16:32:40.817Z,2.43
2018-06-13T16:35:09.629Z,8.07
2018-06-13T16:37:38.698Z,2.60
2018-06-13T16:40:07.514Z,2.67
2018-06-13T16:42:35.999Z,3.07
2018-06-13T16:45:05.519Z,4.23
2018-06-13T16:47:34.099Z,2.83
2018-06-13T16:50:08.573Z,2.70
2018-06-13T16:54:55.949Z,2.63
2018-06-13T16:57:24.741Z,2.43
2018-06-13T16:59:53.505Z,3.27
2018-06-13T17:02:22.378Z,2.50
2018-06-13T17:04:51.327Z,2.23
2018-06-13T17:07:19.903Z,2.70
2018-06-13T17:09:49.003Z,6.07
2018-06-13T17:12:17.588Z,3.10
2018-06-13T17:14:46.878Z,4.00
2018-06-13T17:17:15.611Z,2.23
2018-06-13T17:19:44.416Z,3.30
2018-06-13T17:22:13.021Z,1.83
2018-06-13T17:24:41.584Z,5.97
2018-06-13T17:27:11.368Z,2.07
2018-06-13T17:29:40.409Z,3.50
2018-06-13T17:32:09.063Z,3.30
2018-06-13T17:34:37.683Z,1.97
2018-06-13T17:37:06.547Z,2.47
2018-06-13T17:39:35.486Z,5.50
2018-06-13T17:42:04.227Z,1.77
2018-06-13T17:44:33.076Z,5.90
2018-06-13T17:47:01.868Z,2.50
2018-06-13T17:49:30.845Z,2.67
2018-06-13T17:51:59.444Z,1.93
2018-06-13T17:54:28.763Z,2.70
2018-06-13T17:56:57.623Z,2.83
2018-06-13T17:59:26.477Z,1.97
2018-06-13T18:01:56.969Z,2.17
2018-06-13T18:07:29.051Z,3.00
2018-06-13T18:09:57.712Z,4.03
2018-06-13T18:12:26.261Z,2.70
2018-06-13T18:14:54.797Z,3.07
2018-06-13T18:17:23.602Z,4.53
2018-06-13T18:19:52.820Z,3.27
2018-06-13T18:22:21.449Z,2.20
2018-06-13T18:24:50.039Z,2.83
2018-06-13T18:27:18.655Z,2.93
2018-06-13T18:29:47.340Z,3.33
2018-06-13T18:32:16.010Z,2.50
2018-06-13T18:34:44.652Z,2.20
2018-06-13T18:37:13.298Z,2.10
2018-06-13T18:39:41.935Z,2.40
2018-06-13T18:42:10.569Z,2.10
2018-06-13T18:44:39.191Z,4.70
2018-06-13T18:47:07.773Z,4.90
2018-06-13T18:49:36.853Z,2.30
2018-06-13T18:52:05.466Z,2.57
2018-06-13T18:54:33.808Z,2.27
2018-06-13T18:57:02.380Z,2.67
2018-06-13T18:59:31.007Z,4.20
2018-06-13T19:01:59.531Z,4.23
2018-06-13T19:04:28.419Z,5.97
2018-06-13T19:06:57.046Z,5.10
2018-06-13T19:09:25.688Z,2.90
2018-06-13T19:11:54.371Z,4.40
2018-06-13T19:14:22.959Z,2.30
2018-06-13T19:16:51.552Z,2.50
2018-06-13T19:19:20.211Z,3.97
2018-06-13T19:21:48.816Z,2.53
2018-06-13T19:24:17.350Z,4.27
2018-06-13T19:26:46.020Z,2.53
2018-06-13T19:29:14.596Z,1.77
2018-06-13T19:31:43.185Z,2.13
2018-06-13T19:34:11.835Z,2.93
2018-06-13T19:36:40.355Z,2.00
2018-06-13T19:39:10.180Z,2.03
2018-06-13T19:41:38.855Z,2.33
2018-06-13T19:44:07.552Z,2.17
2018-06-13T19:46:36.154Z,1.93
2018-06-13T19:49:04.835Z,3.23
2018-06-13T19:51:33.527Z,1.90
2018-06-13T19:54:07.520Z,6.03
2018-06-13T19:56:36.069Z,3.13
2018-06-13T19:59:04.652Z,1.60
2018-06-13T20:01:33.222Z,2.50
2018-06-13T20:04:07.311Z,3.20
2018-06-13T20:06:38.802Z,2.80
2018-06-13T20:09:09.334Z,4.77
2018-06-13T20:11:38.080Z,3.10
2018-06-13T20:14:11.920Z,2.23
2018-06-13T20:16:51.221Z,12.90
2018-06-13T20:19:25.271Z,2.40
2018-06-13T20:21:55.728Z,2.13
2018-06-13T20:24:24.327Z,2.80
2018-06-13T20:26:58.247Z,12.57
2018-06-13T20:29:32.047Z,4.07
2018-06-13T20:32:00.758Z,3.13
2018-06-13T20:34:29.295Z,3.53
2018-06-13T20:36:57.926Z,4.27
2018-06-13T20:39:26.491Z,4.10
2018-06-13T20:41:55.083Z,2.43
2018-06-13T20:44:23.878Z,2.97
2018-06-13T20:46:52.372Z,2.27
2018-06-13T20:49:20.955Z,3.50
2018-06-13T20:51:49.504Z,4.03
2018-06-13T20:54:18.041Z,3.17
2018-06-13T20:56:46.571Z,2.33
2018-06-13T20:59:15.193Z,2.57
2018-06-13T21:01:43.735Z,2.43
2018-06-13T21:04:12.332Z,2.50
2018-06-13T21:06:40.843Z,3.57
2018-06-13T21:09:14.667Z,4.83
2018-06-13T21:11:43.249Z,3.43
2018-06-13T21:14:11.879Z,4.03
2018-06-13T21:16:40.108Z,4.03
2018-06-13T21:19:08.708Z,3.87
2018-06-13T21:21:37.264Z,4.10
2018-06-13T21:24:05.818Z,3.63
2018-06-13T21:26:34.379Z,2.93
2018-06-13T21:29:02.939Z,4.00
2018-06-13T21:31:31.452Z,3.17
2018-06-13T21:33:59.649Z,2.57
2018-06-13T21:36:28.189Z,4.10
2018-06-13T21:38:56.716Z,2.53
2018-06-13T21:41:25.251Z,3.27
2018-06-13T21:43:53.810Z,3.40
2018-06-13T21:46:22.348Z,5.10
2018-06-13T21:48:50.938Z,3.13
2018-06-13T21:51:19.562Z,2.63
2018-06-13T21:53:48.047Z,3.13
2018-06-13T21:56:16.636Z,2.47
2018-06-13T21:58:45.156Z,2.87
2018-06-13T22:01:13.796Z,2.53
2018-06-13T22:03:42.433Z,2.97
2018-06-13T22:06:11.069Z,6.93
2018-06-13T22:08:39.560Z,2.60
2018-06-13T22:11:08.236Z,2.60
2018-06-13T22:13:36.743Z,3.30
2018-06-13T22:16:05.364Z,3.43
2018-06-13T22:18:33.955Z,4.53
2018-06-13T22:21:02.531Z,4.13
2018-06-13T22:23:31.328Z,3.33
2018-06-13T22:25:59.840Z,2.90
2018-06-13T22:28:28.383Z,3.20
2018-06-13T22:30:56.903Z,3.03
2018-06-13T22:36:08.356Z,4.87
2018-06-13T22:38:36.554Z,2.17
2018-06-13T22:41:05.115Z,8.20
2018-06-13T22:43:33.811Z,2.70
2018-06-13T22:46:02.344Z,2.60
2018-06-13T22:48:30.862Z,2.47
2018-06-13T22:50:59.467Z,4.17
2018-06-13T22:53:28.111Z,3.00
2018-06-13T22:55:56.639Z,3.17
2018-06-13T22:58:25.170Z,6.50
2018-06-13T23:01:04.007Z,2.47
2018-06-13T23:03:33.226Z,3.73
2018-06-13T23:06:04.860Z,2.90
2018-06-13T23:08:34.233Z,2.60
2018-06-13T23:11:02.889Z,3.37
2018-06-13T23:13:31.433Z,5.53
2018-06-13T23:16:00.039Z,3.37
2018-06-13T23:18:29.262Z,3.03
2018-06-13T23:20:58.075Z,5.50
2018-06-13T23:23:26.628Z,4.57
2018-06-13T23:25:56.056Z,2.97
2018-06-13T23:28:24.748Z,4.40
2018-06-13T23:30:53.347Z,5.53
2018-06-13T23:33:21.916Z,4.07
2018-06-13T23:35:50.448Z,5.00
2018-06-13T23:38:18.990Z,3.10
2018-06-13T23:40:47.602Z,3.33
2018-06-13T23:43:16.144Z,4.10
2018-06-13T23:45:44.728Z,3.40
2018-06-13T23:48:13.347Z,6.00
2018-06-13T23:50:41.907Z,3.40
2018-06-13T23:53:10.440Z,5.93
2018-06-13T23:55:38.984Z,7.23
2018-06-13T23:58:22.110Z,5.47
